BAW211 LIRN-LIRA
Flight info
| Callsign | BAW211 |
|---|---|
| Flight time | 0h 31m |
| Altitude | 20000 |
| Route | ALAXI |
| Aircraft | A319/M-SDE2E3FGHIJ1RWXY/SB1 |
Departure
| Time | 2026-05-08 12:22 |
|---|---|
| Airport | Naples International Airport (LIRN) |
Arrival
| Time | 2026-05-08 12:53 |
|---|---|
| Airport | Ciampino–G. B. Pastine International Airport (LIRA) |
| Time | Latitude | Longitude | Altitude | Speed | Heading |
|---|---|---|---|---|---|
| 2026-05-08 12:08 | 40.87810 | 14.28048 | 313 ft | 0 kts | 139° |
| 2026-05-08 12:15 | 40.87812 | 14.28045 | 312 ft | 3 kts | 139° |
| 2026-05-08 12:15 | 40.87832 | 14.28022 | 313 ft | 4 kts | 140° |
| 2026-05-08 12:15 | 40.87854 | 14.28002 | 311 ft | 4 kts | 157° |
| 2026-05-08 12:16 | 40.87878 | 14.27996 | 312 ft | 4 kts | 202° |
| 2026-05-08 12:16 | 40.87888 | 14.28004 | 312 ft | 1 kts | 231° |
| 2026-05-08 12:20 | 40.87878 | 14.27988 | 310 ft | 4 kts | 231° |
| 2026-05-08 12:20 | 40.87855 | 14.27946 | 315 ft | 7 kts | 242° |
| 2026-05-08 12:20 | 40.87867 | 14.27884 | 316 ft | 9 kts | 314° |
| 2026-05-08 12:20 | 40.87906 | 14.27841 | 317 ft | 0 kts | 321° |
| 2026-05-08 12:21 | 40.87909 | 14.27837 | 317 ft | 2 kts | 321° |
| 2026-05-08 12:21 | 40.87938 | 14.27807 | 318 ft | 8 kts | 321° |
| 2026-05-08 12:21 | 40.87996 | 14.27797 | 317 ft | 12 kts | 48° |
| 2026-05-08 12:21 | 40.88102 | 14.28019 | 308 ft | 68 kts | 58° |
| 2026-05-08 12:22 | 40.88535 | 14.28932 | 469 ft | 143 kts | 56° |
| 2026-05-08 12:22 | 40.89075 | 14.30082 | 1475 ft | 150 kts | 56° |
| 2026-05-08 12:22 | 40.89656 | 14.31346 | 2164 ft | 172 kts | 58° |
| 2026-05-08 12:22 | 40.90339 | 14.32794 | 2836 ft | 198 kts | 58° |
| 2026-05-08 12:23 | 40.91092 | 14.34383 | 3901 ft | 208 kts | 58° |
| 2026-05-08 12:23 | 40.91872 | 14.36026 | 5080 ft | 215 kts | 58° |
| 2026-05-08 12:23 | 40.92661 | 14.37693 | 6295 ft | 219 kts | 58° |
| 2026-05-08 12:23 | 40.93486 | 14.39438 | 7348 ft | 232 kts | 58° |
| 2026-05-08 12:24 | 40.94360 | 14.41296 | 8403 ft | 243 kts | 58° |
| 2026-05-08 12:24 | 40.95266 | 14.43229 | 9586 ft | 251 kts | 58° |
| 2026-05-08 12:24 | 40.96199 | 14.45226 | 10662 ft | 259 kts | 58° |
| 2026-05-08 12:24 | 40.97160 | 14.47279 | 11800 ft | 265 kts | 58° |
| 2026-05-08 12:25 | 40.98171 | 14.49342 | 12919 ft | 271 kts | 51° |
| 2026-05-08 12:25 | 40.99655 | 14.50890 | 13956 ft | 276 kts | 23° |
| 2026-05-08 12:25 | 41.01531 | 14.51417 | 14923 ft | 278 kts | 356° |
| 2026-05-08 12:25 | 41.03401 | 14.50815 | 15911 ft | 279 kts | 330° |
| 2026-05-08 12:26 | 41.04883 | 14.49204 | 16940 ft | 277 kts | 305° |
| 2026-05-08 12:26 | 41.05850 | 14.46988 | 17978 ft | 280 kts | 296° |
| 2026-05-08 12:26 | 41.06743 | 14.44718 | 18942 ft | 283 kts | 295° |
| 2026-05-08 12:26 | 41.07659 | 14.42380 | 19627 ft | 288 kts | 295° |
| 2026-05-08 12:27 | 41.08587 | 14.40026 | 19873 ft | 288 kts | 296° |
| 2026-05-08 12:27 | 41.09521 | 14.37668 | 19959 ft | 289 kts | 296° |
| 2026-05-08 12:27 | 41.10501 | 14.35337 | 19974 ft | 290 kts | 302° |
| 2026-05-08 12:27 | 41.11835 | 14.33312 | 19979 ft | 300 kts | 316° |
| 2026-05-08 12:28 | 41.13631 | 14.31626 | 19984 ft | 334 kts | 326° |
| 2026-05-08 12:28 | 41.15698 | 14.29915 | 19975 ft | 364 kts | 326° |
| 2026-05-08 12:28 | 41.17911 | 14.28082 | 19975 ft | 392 kts | 326° |
| 2026-05-08 12:28 | 41.20300 | 14.26101 | 19976 ft | 417 kts | 326° |
| 2026-05-08 12:29 | 41.22827 | 14.24005 | 19979 ft | 437 kts | 326° |
| 2026-05-08 12:29 | 41.24559 | 14.22568 | 19979 ft | 444 kts | 326° |
| 2026-05-08 12:29 | 41.27201 | 14.20375 | 19983 ft | 448 kts | 326° |
| 2026-05-08 12:29 | 41.29853 | 14.18173 | 19981 ft | 450 kts | 326° |
| 2026-05-08 12:30 | 41.33378 | 14.15244 | 19989 ft | 450 kts | 326° |
| 2026-05-08 12:30 | 41.35166 | 14.13754 | 19988 ft | 450 kts | 326° |
| 2026-05-08 12:30 | 41.37825 | 14.11534 | 19989 ft | 450 kts | 326° |
| 2026-05-08 12:30 | 41.40462 | 14.09274 | 19987 ft | 450 kts | 322° |
| 2026-05-08 12:31 | 41.42798 | 14.06609 | 19995 ft | 447 kts | 313° |
| 2026-05-08 12:31 | 41.44773 | 14.03431 | 19995 ft | 445 kts | 303° |
| 2026-05-08 12:31 | 41.46365 | 13.99896 | 19995 ft | 444 kts | 298° |
| 2026-05-08 12:31 | 41.47890 | 13.96321 | 19997 ft | 444 kts | 298° |
| 2026-05-08 12:32 | 41.49406 | 13.92720 | 19994 ft | 445 kts | 298° |
| 2026-05-08 12:32 | 41.50913 | 13.89108 | 19993 ft | 445 kts | 298° |
| 2026-05-08 12:32 | 41.52417 | 13.85496 | 20007 ft | 443 kts | 297° |
| 2026-05-08 12:32 | 41.53897 | 13.81938 | 19996 ft | 445 kts | 298° |
| 2026-05-08 12:33 | 41.55401 | 13.78327 | 19997 ft | 445 kts | 298° |
| 2026-05-08 12:33 | 41.56911 | 13.74709 | 19997 ft | 445 kts | 298° |
| 2026-05-08 12:33 | 41.58416 | 13.71107 | 19781 ft | 439 kts | 298° |
| 2026-05-08 12:33 | 41.59896 | 13.67565 | 18885 ft | 436 kts | 298° |
| 2026-05-08 12:34 | 41.61375 | 13.64012 | 18604 ft | 439 kts | 298° |
| 2026-05-08 12:34 | 41.62832 | 13.60505 | 18362 ft | 419 kts | 298° |
| 2026-05-08 12:34 | 41.64210 | 13.57190 | 18116 ft | 398 kts | 298° |
| 2026-05-08 12:34 | 41.65522 | 13.54032 | 17852 ft | 379 kts | 298° |
| 2026-05-08 12:35 | 41.66772 | 13.51018 | 17588 ft | 362 kts | 298° |
| 2026-05-08 12:35 | 41.67951 | 13.48171 | 17326 ft | 347 kts | 298° |
| 2026-05-08 12:35 | 41.69098 | 13.45398 | 17067 ft | 334 kts | 297° |
| 2026-05-08 12:35 | 41.70199 | 13.42728 | 16808 ft | 323 kts | 298° |
| 2026-05-08 12:36 | 41.71274 | 13.40114 | 16550 ft | 319 kts | 298° |
| 2026-05-08 12:36 | 41.72346 | 13.37518 | 16300 ft | 318 kts | 298° |
| 2026-05-08 12:36 | 41.73476 | 13.34981 | 16055 ft | 317 kts | 304° |
| 2026-05-08 12:36 | 41.74892 | 13.32723 | 15803 ft | 317 kts | 312° |
| 2026-05-08 12:37 | 41.76392 | 13.30565 | 15554 ft | 316 kts | 312° |
| 2026-05-08 12:37 | 41.77889 | 13.28405 | 15310 ft | 316 kts | 312° |
| 2026-05-08 12:37 | 41.79381 | 13.26250 | 15070 ft | 315 kts | 312° |
| 2026-05-08 12:37 | 41.80870 | 13.24097 | 14829 ft | 314 kts | 312° |
| 2026-05-08 12:38 | 41.82357 | 13.21947 | 14590 ft | 313 kts | 312° |
| 2026-05-08 12:38 | 41.83821 | 13.19830 | 14355 ft | 313 kts | 312° |
| 2026-05-08 12:38 | 41.85299 | 13.17692 | 14117 ft | 313 kts | 312° |
| 2026-05-08 12:38 | 41.86785 | 13.15537 | 13887 ft | 316 kts | 314° |
| 2026-05-08 12:39 | 41.88275 | 13.13373 | 13634 ft | 316 kts | 314° |
| 2026-05-08 12:39 | 41.89767 | 13.11204 | 13375 ft | 317 kts | 314° |
| 2026-05-08 12:39 | 41.91262 | 13.09028 | 13114 ft | 316 kts | 314° |
| 2026-05-08 12:39 | 41.92749 | 13.06861 | 12850 ft | 315 kts | 314° |
| 2026-05-08 12:40 | 41.94230 | 13.04703 | 12588 ft | 314 kts | 314° |
| 2026-05-08 12:40 | 41.95707 | 13.02549 | 12334 ft | 313 kts | 314° |
| 2026-05-08 12:40 | 41.97179 | 13.00402 | 12079 ft | 311 kts | 314° |
| 2026-05-08 12:40 | 41.98621 | 12.98297 | 11827 ft | 308 kts | 314° |
| 2026-05-08 12:41 | 42.00082 | 12.96162 | 11571 ft | 303 kts | 314° |
| 2026-05-08 12:41 | 42.01482 | 12.94084 | 11320 ft | 297 kts | 311° |
| 2026-05-08 12:41 | 42.02612 | 12.91830 | 11078 ft | 292 kts | 300° |
| 2026-05-08 12:41 | 42.03404 | 12.89346 | 10832 ft | 287 kts | 289° |
| 2026-05-08 12:42 | 42.03890 | 12.86763 | 10592 ft | 282 kts | 284° |
| 2026-05-08 12:42 | 42.04337 | 12.84208 | 10348 ft | 280 kts | 284° |
| 2026-05-08 12:42 | 42.04783 | 12.81660 | 10108 ft | 280 kts | 285° |
| 2026-05-08 12:42 | 42.05229 | 12.79121 | 9900 ft | 278 kts | 285° |
| 2026-05-08 12:43 | 42.05674 | 12.76591 | 9773 ft | 277 kts | 284° |
| 2026-05-08 12:43 | 42.06113 | 12.74106 | 9636 ft | 269 kts | 284° |
| 2026-05-08 12:43 | 42.06533 | 12.71715 | 9507 ft | 255 kts | 284° |
| 2026-05-08 12:43 | 42.06930 | 12.69447 | 9375 ft | 243 kts | 284° |
| 2026-05-08 12:44 | 42.07313 | 12.67255 | 9020 ft | 240 kts | 284° |
| 2026-05-08 12:44 | 42.07697 | 12.65056 | 8536 ft | 242 kts | 284° |
| 2026-05-08 12:44 | 42.08087 | 12.62815 | 8067 ft | 252 kts | 284° |
| 2026-05-08 12:44 | 42.08497 | 12.60479 | 7549 ft | 260 kts | 284° |
| 2026-05-08 12:45 | 42.08911 | 12.58123 | 7068 ft | 264 kts | 284° |
| 2026-05-08 12:45 | 42.09117 | 12.55690 | 6710 ft | 262 kts | 265° |
| 2026-05-08 12:45 | 42.08601 | 12.53364 | 6238 ft | 260 kts | 240° |
| 2026-05-08 12:45 | 42.07441 | 12.51546 | 5666 ft | 256 kts | 216° |
| 2026-05-08 12:46 | 42.05865 | 12.50483 | 5065 ft | 254 kts | 199° |
| 2026-05-08 12:46 | 42.04210 | 12.49678 | 4579 ft | 249 kts | 200° |
| 2026-05-08 12:46 | 42.02649 | 12.48913 | 4499 ft | 227 kts | 201° |
| 2026-05-08 12:46 | 42.01214 | 12.48210 | 4447 ft | 210 kts | 200° |
| 2026-05-08 12:47 | 41.99917 | 12.47573 | 4414 ft | 188 kts | 200° |
| 2026-05-08 12:47 | 41.98710 | 12.47175 | 4196 ft | 177 kts | 184° |
| 2026-05-08 12:47 | 41.97520 | 12.47379 | 3980 ft | 170 kts | 162° |
| 2026-05-08 12:47 | 41.96487 | 12.48029 | 3780 ft | 155 kts | 153° |
| 2026-05-08 12:48 | 41.95583 | 12.48655 | 3576 ft | 138 kts | 153° |
| 2026-05-08 12:48 | 41.94764 | 12.49224 | 3408 ft | 127 kts | 154° |
| 2026-05-08 12:48 | 41.93987 | 12.49762 | 3246 ft | 124 kts | 154° |
| 2026-05-08 12:48 | 41.93218 | 12.50295 | 3090 ft | 124 kts | 154° |
| 2026-05-08 12:49 | 41.92447 | 12.50829 | 2923 ft | 125 kts | 153° |
| 2026-05-08 12:49 | 41.91669 | 12.51368 | 2756 ft | 127 kts | 154° |
| 2026-05-08 12:49 | 41.90887 | 12.51910 | 2580 ft | 126 kts | 155° |
| 2026-05-08 12:49 | 41.90111 | 12.52448 | 2411 ft | 124 kts | 155° |
| 2026-05-08 12:50 | 41.89367 | 12.52963 | 2248 ft | 120 kts | 155° |
| 2026-05-08 12:50 | 41.88633 | 12.53471 | 2092 ft | 118 kts | 156° |
| 2026-05-08 12:50 | 41.87910 | 12.53972 | 1931 ft | 117 kts | 155° |
| 2026-05-08 12:50 | 41.87186 | 12.54472 | 1776 ft | 116 kts | 155° |
| 2026-05-08 12:51 | 41.86468 | 12.54969 | 1619 ft | 116 kts | 155° |
| 2026-05-08 12:51 | 41.85034 | 12.55960 | 1309 ft | 117 kts | 155° |
| 2026-05-08 12:51 | 41.84306 | 12.56464 | 1160 ft | 115 kts | 155° |
| 2026-05-08 12:52 | 41.83603 | 12.56947 | 1024 ft | 114 kts | 155° |
| 2026-05-08 12:52 | 41.82212 | 12.57904 | 723 ft | 111 kts | 156° |
| 2026-05-08 12:52 | 41.81522 | 12.58383 | 596 ft | 112 kts | 158° |
| 2026-05-08 12:53 | 41.80839 | 12.58866 | 427 ft | 109 kts | 159° |
| 2026-05-08 12:53 | 41.80166 | 12.59320 | 397 ft | 106 kts | 153° |
| 2026-05-08 12:53 | 41.79642 | 12.59683 | 411 ft | 46 kts | 152° |
| 2026-05-08 12:53 | 41.79353 | 12.59884 | 432 ft | 42 kts | 153° |
| 2026-05-08 12:54 | 41.79198 | 12.59970 | 439 ft | 22 kts | 151° |
| 2026-05-08 12:54 | 41.79066 | 12.60046 | 450 ft | 19 kts | 202° |
| 2026-05-08 12:54 | 41.79058 | 12.59887 | 435 ft | 22 kts | 323° |
| 2026-05-08 12:54 | 41.79129 | 12.59837 | 434 ft | 8 kts | 332° |
| 2026-05-08 12:55 | 41.79198 | 12.59790 | 429 ft | 15 kts | 333° |
| 2026-05-08 12:55 | 41.79319 | 12.59706 | 429 ft | 23 kts | 332° |
| 2026-05-08 12:55 | 41.79474 | 12.59598 | 421 ft | 26 kts | 333° |
| 2026-05-08 12:55 | 41.79522 | 12.59498 | 412 ft | 12 kts | 236° |
| 2026-05-08 12:56 | 41.79457 | 12.59393 | 413 ft | 13 kts | 217° |
| 2026-05-08 12:56 | 41.79418 | 12.59407 | 414 ft | 5 kts | 147° |
| 2026-05-08 12:56 | 41.79396 | 12.59436 | 416 ft | 4 kts | 113° |
| 2026-05-08 12:56 | 41.79403 | 12.59471 | 418 ft | 5 kts | 65° |
| 2026-05-08 12:57 | 41.79420 | 12.59503 | 411 ft | 0 kts | 50° |